sensor_id;sensor_type;location;lat;lon;timestamp;pressure;altitude;pressure_sealevel;temperature;humidity
68793;BME280;55778;54.346;10.210;2023-05-29T00:00:31;101915.66;;;8.89;88.39
68793;BME280;55778;54.346;10.210;2023-05-29T00:02:58;101924.13;;;8.85;88.78
68793;BME280;55778;54.346;10.210;2023-05-29T00:05:23;101922.50;;;8.82;88.75
68793;BME280;55778;54.346;10.210;2023-05-29T00:07:49;101922.06;;;8.88;88.55
68793;BME280;55778;54.346;10.210;2023-05-29T00:10:16;101931.84;;;8.78;88.94
68793;BME280;55778;54.346;10.210;2023-05-29T00:12:41;101921.72;;;8.80;88.67
68793;BME280;55778;54.346;10.210;2023-05-29T00:15:08;101921.94;;;8.77;88.90
68793;BME280;55778;54.346;10.210;2023-05-29T00:17:35;101916.81;;;8.73;88.70
68793;BME280;55778;54.346;10.210;2023-05-29T00:20:02;101913.56;;;8.68;88.66
68793;BME280;55778;54.346;10.210;2023-05-29T00:22:30;101909.28;;;8.64;88.72
68793;BME280;55778;54.346;10.210;2023-05-29T00:24:56;101913.31;;;8.58;89.21
68793;BME280;55778;54.346;10.210;2023-05-29T00:27:21;101916.25;;;8.55;89.72
68793;BME280;55778;54.346;10.210;2023-05-29T00:29:46;101923.91;;;8.49;90.16
68793;BME280;55778;54.346;10.210;2023-05-29T00:32:12;101925.53;;;8.39;90.29
68793;BME280;55778;54.346;10.210;2023-05-29T00:34:37;101926.31;;;8.41;90.31
68793;BME280;55778;54.346;10.210;2023-05-29T00:37:03;101926.81;;;8.33;90.34
68793;BME280;55778;54.346;10.210;2023-05-29T00:39:28;101925.63;;;8.37;90.21
68793;BME280;55778;54.346;10.210;2023-05-29T00:41:54;101928.00;;;8.29;91.02
68793;BME280;55778;54.346;10.210;2023-05-29T00:44:23;101926.56;;;8.24;91.13
68793;BME280;55778;54.346;10.210;2023-05-29T00:46:51;101926.94;;;8.17;91.20
68793;BME280;55778;54.346;10.210;2023-05-29T00:49:21;101929.38;;;8.22;91.10
68793;BME280;55778;54.346;10.210;2023-05-29T00:51:48;101941.78;;;8.12;91.82
68793;BME280;55778;54.346;10.210;2023-05-29T00:54:20;101943.38;;;8.02;92.54
68793;BME280;55778;54.346;10.210;2023-05-29T00:56:46;101941.84;;;7.98;92.89
68793;BME280;55778;54.346;10.210;2023-05-29T00:59:12;101935.34;;;8.00;93.15
68793;BME280;55778;54.346;10.210;2023-05-29T01:01:38;101933.50;;;8.01;93.08
68793;BME280;55778;54.346;10.210;2023-05-29T01:04:05;101939.84;;;7.87;93.49
68793;BME280;55778;54.346;10.210;2023-05-29T01:06:35;101939.03;;;7.85;93.73
68793;BME280;55778;54.346;10.210;2023-05-29T01:09:01;101938.56;;;7.79;93.84
68793;BME280;55778;54.346;10.210;2023-05-29T01:14:23;101945.28;;;7.73;94.29
68793;BME280;55778;54.346;10.210;2023-05-29T01:17:08;101944.81;;;7.67;94.58
68793;BME280;55778;54.346;10.210;2023-05-29T01:20:02;101946.75;;;7.65;94.96
68793;BME280;55778;54.346;10.210;2023-05-29T01:25:50;101963.13;;;7.63;94.66
68793;BME280;55778;54.346;10.210;2023-05-29T01:28:25;101960.97;;;7.54;95.13
68793;BME280;55778;54.346;10.210;2023-05-29T01:30:54;101967.84;;;7.60;94.81
68793;BME280;55778;54.346;10.210;2023-05-29T01:33:19;101967.19;;;7.42;95.57
68793;BME280;55778;54.346;10.210;2023-05-29T01:35:45;101962.44;;;7.46;95.65
68793;BME280;55778;54.346;10.210;2023-05-29T01:38:10;101958.47;;;7.51;95.13
68793;BME280;55778;54.346;10.210;2023-05-29T01:40:38;101966.19;;;7.43;95.37
68793;BME280;55778;54.346;10.210;2023-05-29T01:43:07;101957.03;;;7.46;95.26
68793;BME280;55778;54.346;10.210;2023-05-29T01:45:33;101961.94;;;7.39;95.78
68793;BME280;55778;54.346;10.210;2023-05-29T01:47:58;101964.19;;;7.33;95.63
68793;BME280;55778;54.346;10.210;2023-05-29T01:50:24;101961.06;;;7.25;96.40
68793;BME280;55778;54.346;10.210;2023-05-29T01:52:51;101959.44;;;7.22;96.79
68793;BME280;55778;54.346;10.210;2023-05-29T01:55:17;101958.66;;;7.20;96.85
68793;BME280;55778;54.346;10.210;2023-05-29T01:57:43;101960.94;;;7.12;97.04
68793;BME280;55778;54.346;10.210;2023-05-29T02:00:09;101954.47;;;7.29;96.67
68793;BME280;55778;54.346;10.210;2023-05-29T02:02:37;101957.66;;;7.21;96.47
68793;BME280;55778;54.346;10.210;2023-05-29T02:05:03;101964.16;;;7.19;96.58
68793;BME280;55778;54.346;10.210;2023-05-29T02:07:29;101964.25;;;7.17;96.73
68793;BME280;55778;54.346;10.210;2023-05-29T02:09:55;101980.09;;;7.09;97.46
68793;BME280;55778;54.346;10.210;2023-05-29T02:12:20;101968.13;;;7.13;97.18
68793;BME280;55778;54.346;10.210;2023-05-29T02:14:46;101961.84;;;7.13;97.11
68793;BME280;55778;54.346;10.210;2023-05-29T02:17:12;101962.53;;;7.16;96.89
68793;BME280;55778;54.346;10.210;2023-05-29T02:19:37;101953.50;;;7.16;96.46
68793;BME280;55778;54.346;10.210;2023-05-29T02:22:03;101959.41;;;7.08;96.85
68793;BME280;55778;54.346;10.210;2023-05-29T02:24:28;101960.47;;;7.06;97.24
68793;BME280;55778;54.346;10.210;2023-05-29T02:26:54;101956.78;;;7.07;97.12
68793;BME280;55778;54.346;10.210;2023-05-29T02:29:19;101959.41;;;7.08;97.18
68793;BME280;55778;54.346;10.210;2023-05-29T02:31:45;101955.72;;;6.95;97.72
68793;BME280;55778;54.346;10.210;2023-05-29T02:34:11;101951.84;;;6.99;97.90
68793;BME280;55778;54.346;10.210;2023-05-29T02:36:36;101954.34;;;6.88;98.33
68793;BME280;55778;54.346;10.210;2023-05-29T02:39:04;101946.88;;;6.92;98.62
68793;BME280;55778;54.346;10.210;2023-05-29T02:41:30;101950.16;;;6.83;99.13
68793;BME280;55778;54.346;10.210;2023-05-29T02:43:55;101941.00;;;6.85;99.11
68793;BME280;55778;54.346;10.210;2023-05-29T02:46:21;101947.78;;;6.92;99.13
68793;BME280;55778;54.346;10.210;2023-05-29T02:48:47;101944.47;;;6.87;99.36
68793;BME280;55778;54.346;10.210;2023-05-29T02:51:12;101948.31;;;6.83;99.62
68793;BME280;55778;54.346;10.210;2023-05-29T02:53:38;101949.78;;;6.89;99.64
68793;BME280;55778;54.346;10.210;2023-05-29T02:56:03;101949.13;;;6.85;99.78
68793;BME280;55778;54.346;10.210;2023-05-29T02:58:29;101944.38;;;6.89;99.43
68793;BME280;55778;54.346;10.210;2023-05-29T03:00:54;101959.25;;;6.82;100.00
68793;BME280;55778;54.346;10.210;2023-05-29T03:03:20;101963.97;;;6.78;100.00
68793;BME280;55778;54.346;10.210;2023-05-29T03:05:45;101955.28;;;6.73;100.00
68793;BME280;55778;54.346;10.210;2023-05-29T03:08:12;101943.97;;;6.81;100.00
68793;BME280;55778;54.346;10.210;2023-05-29T03:10:38;101958.66;;;6.77;100.00
68793;BME280;55778;54.346;10.210;2023-05-29T03:13:03;101952.06;;;6.67;100.00
68793;BME280;55778;54.346;10.210;2023-05-29T03:15:29;101952.59;;;6.87;100.00
68793;BME280;55778;54.346;10.210;2023-05-29T03:17:54;101947.81;;;6.77;100.00
68793;BME280;55778;54.346;10.210;2023-05-29T03:20:19;101953.94;;;6.80;100.00
68793;BME280;55778;54.346;10.210;2023-05-29T03:22:45;101943.78;;;6.84;100.00
68793;BME280;55778;54.346;10.210;2023-05-29T03:25:10;101948.16;;;6.86;100.00
68793;BME280;55778;54.346;10.210;2023-05-29T03:27:36;101942.81;;;6.85;100.00
68793;BME280;55778;54.346;10.210;2023-05-29T03:30:02;101943.00;;;6.82;100.00
68793;BME280;55778;54.346;10.210;2023-05-29T03:32:28;101952.28;;;6.78;100.00
68793;BME280;55778;54.346;10.210;2023-05-29T03:34:53;101949.41;;;6.81;100.00
68793;BME280;55778;54.346;10.210;2023-05-29T03:37:19;101954.25;;;6.90;100.00
68793;BME280;55778;54.346;10.210;2023-05-29T03:39:44;101954.16;;;6.91;100.00
68793;BME280;55778;54.346;10.210;2023-05-29T03:42:09;101954.44;;;6.87;100.00
68793;BME280;55778;54.346;10.210;2023-05-29T03:44:35;101958.19;;;6.84;100.00
68793;BME280;55778;54.346;10.210;2023-05-29T03:47:00;101961.00;;;6.83;100.00
68793;BME280;55778;54.346;10.210;2023-05-29T03:49:25;101965.28;;;6.87;100.00
68793;BME280;55778;54.346;10.210;2023-05-29T03:51:51;101953.56;;;7.00;100.00
68793;BME280;55778;54.346;10.210;2023-05-29T03:54:16;101960.47;;;7.06;100.00
68793;BME280;55778;54.346;10.210;2023-05-29T03:56:42;101950.94;;;6.99;100.00
68793;BME280;55778;54.346;10.210;2023-05-29T03:59:08;101950.41;;;7.22;100.00
68793;BME280;55778;54.346;10.210;2023-05-29T04:01:33;101967.16;;;7.14;100.00
68793;BME280;55778;54.346;10.210;2023-05-29T04:03:59;101964.34;;;7.16;100.00
68793;BME280;55778;54.346;10.210;2023-05-29T04:06:25;101966.69;;;7.22;100.00
68793;BME280;55778;54.346;10.210;2023-05-29T04:08:51;101976.19;;;7.29;100.00
68793;BME280;55778;54.346;10.210;2023-05-29T04:11:16;101976.47;;;7.38;100.00
68793;BME280;55778;54.346;10.210;2023-05-29T04:13:42;101988.00;;;7.42;99.73
68793;BME280;55778;54.346;10.210;2023-05-29T04:16:07;101982.59;;;7.56;99.11
68793;BME280;55778;54.346;10.210;2023-05-29T04:18:32;101985.19;;;7.57;99.06
68793;BME280;55778;54.346;10.210;2023-05-29T04:20:58;101986.66;;;7.49;99.05
68793;BME280;55778;54.346;10.210;2023-05-29T04:23:24;101978.22;;;7.67;98.57
68793;BME280;55778;54.346;10.210;2023-05-29T04:25:49;101980.06;;;7.67;98.46
68793;BME280;55778;54.346;10.210;2023-05-29T04:28:18;101980.53;;;7.73;97.91
68793;BME280;55778;54.346;10.210;2023-05-29T04:30:46;101981.22;;;7.77;97.45
68793;BME280;55778;54.346;10.210;2023-05-29T04:33:12;101982.16;;;7.76;97.60
68793;BME280;55778;54.346;10.210;2023-05-29T04:35:38;101984.09;;;7.88;97.69
68793;BME280;55778;54.346;10.210;2023-05-29T04:38:03;101986.81;;;7.88;97.06
68793;BME280;55778;54.346;10.210;2023-05-29T04:40:30;101983.81;;;7.92;96.82
68793;BME280;55778;54.346;10.210;2023-05-29T04:42:56;101993.03;;;8.04;96.21
68793;BME280;55778;54.346;10.210;2023-05-29T04:45:25;101996.03;;;7.99;96.06
68793;BME280;55778;54.346;10.210;2023-05-29T04:47:50;101994.16;;;8.00;96.25
68793;BME280;55778;54.346;10.210;2023-05-29T04:50:17;101996.47;;;8.06;95.79
68793;BME280;55778;54.346;10.210;2023-05-29T04:52:43;101998.03;;;8.10;95.38
68793;BME280;55778;54.346;10.210;2023-05-29T04:55:09;101998.03;;;8.10;95.85
68793;BME280;55778;54.346;10.210;2023-05-29T04:57:35;102000.03;;;8.20;95.14
68793;BME280;55778;54.346;10.210;2023-05-29T05:00:01;102001.91;;;8.20;95.44
68793;BME280;55778;54.346;10.210;2023-05-29T05:02:30;101996.56;;;8.33;95.05
68793;BME280;55778;54.346;10.210;2023-05-29T05:04:55;101996.00;;;8.28;93.89
68793;BME280;55778;54.346;10.210;2023-05-29T05:07:21;102001.13;;;8.32;93.79
68793;BME280;55778;54.346;10.210;2023-05-29T05:09:47;102002.34;;;8.41;93.75
68793;BME280;55778;54.346;10.210;2023-05-29T05:12:12;101996.66;;;8.31;94.39
68793;BME280;55778;54.346;10.210;2023-05-29T05:14:37;101997.16;;;8.50;93.52
68793;BME280;55778;54.346;10.210;2023-05-29T05:17:03;101999.78;;;8.52;94.17
68793;BME280;55778;54.346;10.210;2023-05-29T05:19:28;102006.38;;;8.62;93.25
68793;BME280;55778;54.346;10.210;2023-05-29T05:21:54;101997.38;;;8.47;92.52
68793;BME280;55778;54.346;10.210;2023-05-29T05:24:19;101996.44;;;8.61;93.34
68793;BME280;55778;54.346;10.210;2023-05-29T05:26:44;101990.25;;;8.59;92.05
68793;BME280;55778;54.346;10.210;2023-05-29T05:29:10;101984.94;;;8.57;91.97
68793;BME280;55778;54.346;10.210;2023-05-29T05:31:35;101992.88;;;8.60;92.62
68793;BME280;55778;54.346;10.210;2023-05-29T05:34:01;101997.22;;;8.63;93.08
68793;BME280;55778;54.346;10.210;2023-05-29T05:36:26;101984.91;;;8.84;92.84
68793;BME280;55778;54.346;10.210;2023-05-29T05:38:51;101985.34;;;8.90;91.93
68793;BME280;55778;54.346;10.210;2023-05-29T05:41:17;101992.22;;;8.96;92.16
68793;BME280;55778;54.346;10.210;2023-05-29T05:43:42;101993.78;;;9.12;91.03
68793;BME280;55778;54.346;10.210;2023-05-29T05:46:08;101995.19;;;9.18;91.00
68793;BME280;55778;54.346;10.210;2023-05-29T05:48:33;101996.59;;;9.23;90.57
68793;BME280;55778;54.346;10.210;2023-05-29T05:50:58;101988.56;;;9.09;90.41
68793;BME280;55778;54.346;10.210;2023-05-29T05:53:24;102000.06;;;9.13;90.77
68793;BME280;55778;54.346;10.210;2023-05-29T05:55:49;102002.69;;;9.14;91.37
68793;BME280;55778;54.346;10.210;2023-05-29T05:58:14;101993.88;;;9.11;91.76
68793;BME280;55778;54.346;10.210;2023-05-29T06:00:40;102000.63;;;9.30;91.03
68793;BME280;55778;54.346;10.210;2023-05-29T06:03:06;102002.16;;;9.34;91.40
68793;BME280;55778;54.346;10.210;2023-05-29T06:05:31;102002.81;;;9.50;90.47
68793;BME280;55778;54.346;10.210;2023-05-29T06:07:56;102009.44;;;9.59;90.12
68793;BME280;55778;54.346;10.210;2023-05-29T06:10:22;102002.16;;;9.59;89.62
68793;BME280;55778;54.346;10.210;2023-05-29T06:12:47;101993.56;;;9.65;88.83
68793;BME280;55778;54.346;10.210;2023-05-29T06:15:13;102003.34;;;9.55;88.62
68793;BME280;55778;54.346;10.210;2023-05-29T06:17:38;101999.13;;;9.39;90.10
68793;BME280;55778;54.346;10.210;2023-05-29T06:20:05;102011.97;;;9.62;90.65
68793;BME280;55778;54.346;10.210;2023-05-29T06:22:35;102002.59;;;9.78;90.10
68793;BME280;55778;54.346;10.210;2023-05-29T06:25:00;102008.47;;;9.85;89.47
68793;BME280;55778;54.346;10.210;2023-05-29T06:27:26;102011.59;;;9.91;88.62
68793;BME280;55778;54.346;10.210;2023-05-29T06:29:51;102015.53;;;10.13;87.70
68793;BME280;55778;54.346;10.210;2023-05-29T06:32:17;102025.41;;;10.13;87.83
68793;BME280;55778;54.346;10.210;2023-05-29T06:34:42;102024.31;;;10.29;87.49
68793;BME280;55778;54.346;10.210;2023-05-29T06:37:08;102014.69;;;10.36;87.61
68793;BME280;55778;54.346;10.210;2023-05-29T06:39:34;102016.94;;;10.42;86.07
68793;BME280;55778;54.346;10.210;2023-05-29T06:41:59;102004.56;;;10.61;85.47
68793;BME280;55778;54.346;10.210;2023-05-29T06:44:26;102010.09;;;10.72;84.59
68793;BME280;55778;54.346;10.210;2023-05-29T06:46:52;102012.00;;;10.83;84.32
68793;BME280;55778;54.346;10.210;2023-05-29T06:49:17;102010.75;;;10.87;84.14
68793;BME280;55778;54.346;10.210;2023-05-29T06:51:44;102013.50;;;10.87;83.62
68793;BME280;55778;54.346;10.210;2023-05-29T06:54:09;102013.78;;;10.95;83.56
68793;BME280;55778;54.346;10.210;2023-05-29T06:56:35;102024.22;;;10.77;83.18
68793;BME280;55778;54.346;10.210;2023-05-29T06:59:00;102020.97;;;10.96;82.88
68793;BME280;55778;54.346;10.210;2023-05-29T07:01:26;102017.81;;;10.78;84.03
68793;BME280;55778;54.346;10.210;2023-05-29T07:03:52;102016.06;;;11.12;82.23
68793;BME280;55778;54.346;10.210;2023-05-29T07:06:17;102021.28;;;11.15;81.76
68793;BME280;55778;54.346;10.210;2023-05-29T07:08:43;102020.53;;;11.13;82.55
68793;BME280;55778;54.346;10.210;2023-05-29T07:11:08;102014.63;;;11.30;80.70
68793;BME280;55778;54.346;10.210;2023-05-29T07:13:34;102017.78;;;11.36;81.52
68793;BME280;55778;54.346;10.210;2023-05-29T07:16:00;102023.06;;;11.38;80.77
68793;BME280;55778;54.346;10.210;2023-05-29T07:18:26;102021.19;;;11.62;79.64
68793;BME280;55778;54.346;10.210;2023-05-29T07:20:51;102020.38;;;11.49;81.38
68793;BME280;55778;54.346;10.210;2023-05-29T07:23:16;102029.34;;;11.51;79.71
68793;BME280;55778;54.346;10.210;2023-05-29T07:25:42;102024.47;;;11.43;79.58
68793;BME280;55778;54.346;10.210;2023-05-29T07:28:07;102020.94;;;11.65;78.71
68793;BME280;55778;54.346;10.210;2023-05-29T07:30:32;102023.94;;;11.95;78.40
68793;BME280;55778;54.346;10.210;2023-05-29T07:32:58;102016.00;;;12.03;76.69
68793;BME280;55778;54.346;10.210;2023-05-29T07:35:23;102020.81;;;12.10;76.53
68793;BME280;55778;54.346;10.210;2023-05-29T07:37:49;102020.56;;;12.13;74.62
68793;BME280;55778;54.346;10.210;2023-05-29T07:40:16;102037.19;;;12.86;74.54
68793;BME280;55778;54.346;10.210;2023-05-29T07:42:42;102021.97;;;12.73;72.75
68793;BME280;55778;54.346;10.210;2023-05-29T07:45:07;102025.84;;;13.13;70.47
68793;BME280;55778;54.346;10.210;2023-05-29T07:47:33;102025.91;;;13.43;70.75
68793;BME280;55778;54.346;10.210;2023-05-29T07:49:58;102025.63;;;13.66;70.25
68793;BME280;55778;54.346;10.210;2023-05-29T07:52:23;102027.59;;;13.03;71.92
68793;BME280;55778;54.346;10.210;2023-05-29T07:54:49;102028.25;;;13.27;71.54
68793;BME280;55778;54.346;10.210;2023-05-29T07:57:14;102026.44;;;13.16;70.37
68793;BME280;55778;54.346;10.210;2023-05-29T07:59:40;102027.72;;;13.01;72.69
68793;BME280;55778;54.346;10.210;2023-05-29T08:02:07;102020.28;;;13.44;70.22
68793;BME280;55778;54.346;10.210;2023-05-29T08:04:32;102022.28;;;13.83;68.90
68793;BME280;55778;54.346;10.210;2023-05-29T08:07:02;102027.13;;;13.70;68.36
68793;BME280;55778;54.346;10.210;2023-05-29T08:09:30;102025.53;;;13.98;67.86
68793;BME280;55778;54.346;10.210;2023-05-29T08:11:56;102022.09;;;13.55;68.53
68793;BME280;55778;54.346;10.210;2023-05-29T08:14:21;102022.19;;;13.64;69.78
68793;BME280;55778;54.346;10.210;2023-05-29T08:16:47;102029.97;;;13.89;67.10
68793;BME280;55778;54.346;10.210;2023-05-29T08:19:12;102027.75;;;13.83;65.00
68793;BME280;55778;54.346;10.210;2023-05-29T08:21:38;102030.84;;;14.60;67.63
68793;BME280;55778;54.346;10.210;2023-05-29T08:24:03;102026.25;;;14.89;63.62
68793;BME280;55778;54.346;10.210;2023-05-29T08:26:30;102030.16;;;14.86;62.15
68793;BME280;55778;54.346;10.210;2023-05-29T08:28:56;102026.94;;;14.72;61.58
68793;BME280;55778;54.346;10.210;2023-05-29T08:31:22;102030.16;;;14.96;61.83
68793;BME280;55778;54.346;10.210;2023-05-29T08:33:50;102022.09;;;15.04;61.08
68793;BME280;55778;54.346;10.210;2023-05-29T08:36:15;102023.97;;;15.03;59.60
68793;BME280;55778;54.346;10.210;2023-05-29T08:38:40;102026.56;;;14.95;60.33
68793;BME280;55778;54.346;10.210;2023-05-29T08:41:07;102032.47;;;15.00;62.54
68793;BME280;55778;54.346;10.210;2023-05-29T08:43:32;102026.41;;;15.44;61.20
68793;BME280;55778;54.346;10.210;2023-05-29T08:46:03;102028.31;;;15.44;60.98
68793;BME280;55778;54.346;10.210;2023-05-29T08:48:29;102031.34;;;15.60;57.11
68793;BME280;55778;54.346;10.210;2023-05-29T08:50:57;102028.59;;;15.50;57.79
68793;BME280;55778;54.346;10.210;2023-05-29T08:53:24;102036.91;;;15.87;57.99
68793;BME280;55778;54.346;10.210;2023-05-29T08:55:51;102030.09;;;16.28;58.18
68793;BME280;55778;54.346;10.210;2023-05-29T08:58:19;102036.25;;;16.93;55.01
68793;BME280;55778;54.346;10.210;2023-05-29T09:00:46;102031.16;;;17.16;54.07
68793;BME280;55778;54.346;10.210;2023-05-29T09:03:12;102034.00;;;16.62;53.86
68793;BME280;55778;54.346;10.210;2023-05-29T09:05:39;102034.00;;;16.62;53.17
68793;BME280;55778;54.346;10.210;2023-05-29T09:08:06;102029.75;;;16.50;51.97
68793;BME280;55778;54.346;10.210;2023-05-29T09:10:32;102029.06;;;16.65;53.06
68793;BME280;55778;54.346;10.210;2023-05-29T09:12:58;102032.00;;;16.54;52.96
68793;BME280;55778;54.346;10.210;2023-05-29T09:15:24;102031.97;;;16.64;52.11
68793;BME280;55778;54.346;10.210;2023-05-29T09:17:53;102029.13;;;17.18;52.93
68793;BME280;55778;54.346;10.210;2023-05-29T09:20:20;102033.66;;;17.09;53.83
68793;BME280;55778;54.346;10.210;2023-05-29T09:22:56;102034.06;;;17.14;51.03
68793;BME280;55778;54.346;10.210;2023-05-29T09:25:26;102034.25;;;16.68;50.25
68793;BME280;55778;54.346;10.210;2023-05-29T09:28:05;102040.13;;;17.35;50.48
68793;BME280;55778;54.346;10.210;2023-05-29T09:30:39;102028.94;;;17.02;50.50
68793;BME280;55778;54.346;10.210;2023-05-29T09:33:07;102033.34;;;16.95;49.37
68793;BME280;55778;54.346;10.210;2023-05-29T09:35:44;102032.81;;;17.26;50.29
68793;BME280;55778;54.346;10.210;2023-05-29T09:38:14;102023.66;;;17.61;50.21
68793;BME280;55778;54.346;10.210;2023-05-29T09:40:41;102026.66;;;18.52;46.62
68793;BME280;55778;54.346;10.210;2023-05-29T09:43:17;102020.00;;;18.79;47.53
68793;BME280;55778;54.346;10.210;2023-05-29T09:45:52;102033.22;;;18.26;48.29
68793;BME280;55778;54.346;10.210;2023-05-29T09:48:22;102028.41;;;18.61;47.85
68793;BME280;55778;54.346;10.210;2023-05-29T09:50:48;102032.59;;;17.80;47.92
68793;BME280;55778;54.346;10.210;2023-05-29T09:53:21;102034.53;;;17.62;47.84
68793;BME280;55778;54.346;10.210;2023-05-29T09:55:52;102036.69;;;18.28;47.70
68793;BME280;55778;54.346;10.210;2023-05-29T09:58:18;102038.50;;;18.86;48.36
68793;BME280;55778;54.346;10.210;2023-05-29T10:00:44;102025.50;;;18.71;46.94
68793;BME280;55778;54.346;10.210;2023-05-29T10:03:10;102019.63;;;17.99;48.46
68793;BME280;55778;54.346;10.210;2023-05-29T10:05:42;102021.31;;;17.92;49.80
68793;BME280;55778;54.346;10.210;2023-05-29T10:08:12;102023.72;;;19.03;47.85
68793;BME280;55778;54.346;10.210;2023-05-29T10:10:42;102023.97;;;19.58;46.50
68793;BME280;55778;54.346;10.210;2023-05-29T10:13:11;102033.56;;;19.06;46.96
68793;BME280;55778;54.346;10.210;2023-05-29T10:15:37;102032.56;;;18.32;47.18
68793;BME280;55778;54.346;10.210;2023-05-29T10:18:08;102034.69;;;17.61;45.91
68793;BME280;55778;54.346;10.210;2023-05-29T10:20:38;102039.16;;;18.05;48.37
68793;BME280;55778;54.346;10.210;2023-05-29T10:23:04;102028.84;;;18.90;45.23
68793;BME280;55778;54.346;10.210;2023-05-29T10:25:32;102027.88;;;19.23;43.94
68793;BME280;55778;54.346;10.210;2023-05-29T10:27:59;102023.81;;;18.86;43.13
68793;BME280;55778;54.346;10.210;2023-05-29T10:30:30;102022.50;;;19.22;43.36
68793;BME280;55778;54.346;10.210;2023-05-29T10:33:09;102023.84;;;18.44;45.38
68793;BME280;55778;54.346;10.210;2023-05-29T10:35:53;102018.38;;;19.26;44.48
68793;BME280;55778;54.346;10.210;2023-05-29T10:38:19;102021.81;;;18.21;45.49
68793;BME280;55778;54.346;10.210;2023-05-29T10:40:46;102020.13;;;19.59;42.15
68793;BME280;55778;54.346;10.210;2023-05-29T10:43:33;102018.31;;;20.30;40.67
68793;BME280;55778;54.346;10.210;2023-05-29T10:46:02;102020.53;;;20.35;42.87
68793;BME280;55778;54.346;10.210;2023-05-29T10:48:39;102015.56;;;20.61;41.67
68793;BME280;55778;54.346;10.210;2023-05-29T10:51:06;102022.53;;;21.18;40.75
68793;BME280;55778;54.346;10.210;2023-05-29T10:53:33;102017.25;;;20.70;41.04
68793;BME280;55778;54.346;10.210;2023-05-29T10:55:59;102010.44;;;20.80;40.77
68793;BME280;55778;54.346;10.210;2023-05-29T10:58:26;102022.28;;;21.05;39.86
68793;BME280;55778;54.346;10.210;2023-05-29T11:00:55;102017.66;;;20.89;40.63
68793;BME280;55778;54.346;10.210;2023-05-29T11:03:41;102011.78;;;19.99;42.72
68793;BME280;55778;54.346;10.210;2023-05-29T11:06:17;102009.63;;;20.72;41.29
68793;BME280;55778;54.346;10.210;2023-05-29T11:08:47;102008.81;;;21.02;40.50
68793;BME280;55778;54.346;10.210;2023-05-29T11:13:54;102021.88;;;20.77;40.48
68793;BME280;55778;54.346;10.210;2023-05-29T11:16:36;102009.72;;;20.94;41.35
68793;BME280;55778;54.346;10.210;2023-05-29T11:19:06;102008.53;;;21.79;38.55
68793;BME280;55778;54.346;10.210;2023-05-29T11:21:53;102015.63;;;21.59;39.34
68793;BME280;55778;54.346;10.210;2023-05-29T11:24:28;102011.44;;;21.63;37.97
68793;BME280;55778;54.346;10.210;2023-05-29T11:26:56;102014.38;;;20.55;40.05
68793;BME280;55778;54.346;10.210;2023-05-29T11:29:35;102008.41;;;20.74;41.05
68793;BME280;55778;54.346;10.210;2023-05-29T11:32:05;102006.88;;;21.25;40.15
68793;BME280;55778;54.346;10.210;2023-05-29T11:34:33;102009.91;;;20.85;40.81
68793;BME280;55778;54.346;10.210;2023-05-29T11:37:00;102020.88;;;20.78;39.98
68793;BME280;55778;54.346;10.210;2023-05-29T11:39:26;102006.34;;;21.66;39.18
68793;BME280;55778;54.346;10.210;2023-05-29T11:41:52;101996.13;;;21.90;38.60
68793;BME280;55778;54.346;10.210;2023-05-29T11:44:23;101997.16;;;21.89;37.60
68793;BME280;55778;54.346;10.210;2023-05-29T11:49:35;102001.03;;;22.31;36.45
68793;BME280;55778;54.346;10.210;2023-05-29T11:52:12;101991.81;;;22.16;36.18
68793;BME280;55778;54.346;10.210;2023-05-29T11:54:39;102005.94;;;21.10;39.62
68793;BME280;55778;54.346;10.210;2023-05-29T11:57:04;101996.31;;;21.88;37.09
68793;BME280;55778;54.346;10.210;2023-05-29T11:59:34;102000.78;;;21.75;36.59
68793;BME280;55778;54.346;10.210;2023-05-29T12:02:02;101991.78;;;21.87;37.11
68793;BME280;55778;54.346;10.210;2023-05-29T12:04:28;101985.59;;;22.00;37.24
68793;BME280;55778;54.346;10.210;2023-05-29T12:06:53;101986.34;;;20.89;40.54
68793;BME280;55778;54.346;10.210;2023-05-29T12:09:26;101986.38;;;21.11;38.33
68793;BME280;55778;54.346;10.210;2023-05-29T12:11:51;101983.00;;;21.61;38.41
68793;BME280;55778;54.346;10.210;2023-05-29T12:14:17;101986.06;;;21.66;38.64
68793;BME280;55778;54.346;10.210;2023-05-29T12:16:43;101984.84;;;21.68;38.80
68793;BME280;55778;54.346;10.210;2023-05-29T12:19:08;101987.22;;;21.57;38.44
68793;BME280;55778;54.346;10.210;2023-05-29T12:21:34;101981.75;;;21.63;38.34
68793;BME280;55778;54.346;10.210;2023-05-29T12:24:00;101979.84;;;22.16;37.28
68793;BME280;55778;54.346;10.210;2023-05-29T12:26:25;101974.94;;;22.61;36.13
68793;BME280;55778;54.346;10.210;2023-05-29T12:28:51;101974.28;;;22.59;36.27
68793;BME280;55778;54.346;10.210;2023-05-29T12:31:29;101979.88;;;22.80;36.40
68793;BME280;55778;54.346;10.210;2023-05-29T12:34:00;101977.16;;;22.08;36.64
68793;BME280;55778;54.346;10.210;2023-05-29T12:36:26;101982.72;;;21.70;36.94
68793;BME280;55778;54.346;10.210;2023-05-29T12:38:52;101987.81;;;20.69;37.21
68793;BME280;55778;54.346;10.210;2023-05-29T12:41:25;101985.84;;;20.85;38.85
68793;BME280;55778;54.346;10.210;2023-05-29T12:43:53;101988.84;;;20.37;38.83
68793;BME280;55778;54.346;10.210;2023-05-29T12:46:20;101982.06;;;21.31;37.78
68793;BME280;55778;54.346;10.210;2023-05-29T12:48:45;101979.72;;;21.57;37.76
68793;BME280;55778;54.346;10.210;2023-05-29T12:51:11;101975.47;;;21.32;37.99
68793;BME280;55778;54.346;10.210;2023-05-29T12:53:36;101974.50;;;21.62;37.26